Time;durP1;ratioP1;P1;durP2;ratioP2;P2;SDS_P1;SDS_P2;PMS_P1;PMS_P2;Temp;Humidity;BMP_temperature;BMP_pressure;BME280_temperature;BME280_humidity;BME280_pressure;Samples;Min_cycle;Max_cycle;Signal;HPM_P1;HPM_P2
2022/04/03 00:01:40;;;;;;;7.32;1.70;;;21.60;99.90;;;;;;5053106;28;20387;-71
2022/04/03 00:04:08;;;;;;;3.28;0.63;;;21.70;99.90;;;;;;5036936;28;20045;-71
2022/04/03 00:06:35;;;;;;;2.15;0.30;;;21.30;99.90;;;;;;5054241;28;20025;-71
2022/04/03 00:09:03;;;;;;;1.92;0.52;;;21.30;99.90;;;;;;5055720;28;20017;-72
2022/04/03 00:11:31;;;;;;;1.20;0.30;;;21.40;99.90;;;;;;5070052;28;20037;-72
2022/04/03 00:13:58;;;;;;;3.10;0.73;;;21.50;99.90;;;;;;5055568;28;20386;-72
2022/04/03 00:16:26;;;;;;;3.15;0.55;;;21.70;99.90;;;;;;5051776;28;20029;-70
2022/04/03 00:18:53;;;;;;;3.47;0.47;;;21.60;99.90;;;;;;5055213;28;20115;-70
2022/04/03 00:21:20;;;;;;;2.08;0.32;;;21.50;99.90;;;;;;5049902;28;20027;-71
2022/04/03 00:23:48;;;;;;;2.75;0.60;;;21.80;99.90;;;;;;5053803;28;20021;-71
2022/04/03 00:26:16;;;;;;;5.68;0.65;;;22.30;99.90;;;;;;5052918;28;20035;-71
2022/04/03 00:28:43;;;;;;;2.42;0.88;;;22.40;99.90;;;;;;5055003;28;20100;-71
2022/04/03 00:31:12;;;;;;;2.42;0.80;;;22.50;99.90;;;;;;5054266;28;20123;-71
2022/04/03 00:33:41;;;;;;;4.25;0.60;;;22.50;99.90;;;;;;5054962;28;20527;-70
2022/04/03 00:36:08;;;;;;;3.97;0.85;;;22.40;99.90;;;;;;5052263;28;20380;-70
2022/04/03 00:38:35;;;;;;;2.92;0.60;;;22.00;99.90;;;;;;5054979;28;20017;-70
2022/04/03 00:41:03;;;;;;;1.73;0.40;;;21.90;99.90;;;;;;5051458;28;20026;-70
2022/04/03 00:43:31;;;;;;;3.47;0.68;;;21.80;99.90;;;;;;5043850;28;20125;-71
2022/04/03 00:46:01;;;;;;;2.55;0.60;;;21.60;99.90;;;;;;5052879;28;20083;-72
2022/04/03 00:48:28;;;;;;;1.73;0.35;;;21.60;99.90;;;;;;5053415;28;20037;-71
2022/04/03 00:50:56;;;;;;;5.57;0.60;;;22.00;99.90;;;;;;5052766;28;20024;-71
2022/04/03 00:53:23;;;;;;;3.28;0.40;;;22.30;99.90;;;;;;5054074;28;20040;-72
2022/04/03 00:55:52;;;;;;;2.63;0.40;;;22.40;99.90;;;;;;5051939;28;20015;-71
2022/04/03 00:58:23;;;;;;;2.08;0.60;;;22.20;99.90;;;;;;5054259;28;20047;-71
2022/04/03 01:00:50;;;;;;;2.95;0.50;;;22.10;99.90;;;;;;5051133;28;20132;-72
2022/04/03 01:03:17;;;;;;;1.95;0.50;;;22.00;99.90;;;;;;5033410;28;20394;-71
2022/04/03 01:05:45;;;;;;;2.88;0.82;;;21.80;99.90;;;;;;5035014;28;20397;-71
2022/04/03 01:08:12;;;;;;;3.25;0.63;;;21.80;99.90;;;;;;5053122;28;20025;-70
2022/04/03 01:10:41;;;;;;;2.00;0.40;;;22.10;99.90;;;;;;5051970;28;20351;-72
2022/04/03 01:13:10;;;;;;;2.13;0.50;;;22.30;99.90;;;;;;5052724;28;20481;-72
2022/04/03 01:15:37;;;;;;;2.97;0.52;;;22.40;99.90;;;;;;5047530;28;20111;-71
2022/04/03 01:18:05;;;;;;;3.65;0.73;;;22.40;99.90;;;;;;5034263;28;20028;-71
2022/04/03 01:20:32;;;;;;;4.32;1.30;;;22.40;99.90;;;;;;5043489;28;20111;-72
2022/04/03 01:23:00;;;;;;;4.15;0.85;;;22.50;99.90;;;;;;5054451;28;20017;-70
2022/04/03 01:25:27;;;;;;;3.08;0.60;;;22.60;99.90;;;;;;5053773;28;20040;-71
2022/04/03 01:27:55;;;;;;;4.05;0.88;;;22.60;99.90;;;;;;5052965;28;20108;-71
2022/04/03 01:30:22;;;;;;;1.85;0.98;;;22.50;99.90;;;;;;5053004;28;20021;-71
2022/04/03 01:32:49;;;;;;;2.65;0.60;;;22.60;99.90;;;;;;5047420;28;20080;-71
2022/04/03 01:35:17;;;;;;;3.22;0.63;;;22.80;99.70;;;;;;5033257;28;20438;-72
2022/04/03 01:37:45;;;;;;;3.03;1.10;;;23.40;99.80;;;;;;5032532;28;20025;-71
2022/04/03 01:40:12;;;;;;;3.30;0.80;;;23.60;98.10;;;;;;5033543;28;20053;-71
2022/04/03 01:42:40;;;;;;;2.20;0.47;;;23.70;97.50;;;;;;5034903;28;20083;-71
2022/04/03 01:47:36;;;;;;;2.03;0.43;;;23.70;96.90;;;;;;5029897;28;20065;-72
2022/04/03 01:50:06;;;;;;;3.63;0.65;;;23.70;97.00;;;;;;5033538;28;20493;-71
2022/04/03 01:52:34;;;;;;;2.88;0.40;;;23.90;97.30;;;;;;5031983;28;20088;-72
2022/04/03 01:55:01;;;;;;;2.88;0.65;;;23.80;96.50;;;;;;5033567;28;20029;-72
2022/04/03 01:57:28;;;;;;;5.22;0.60;;;24.00;96.80;;;;;;5016804;28;20033;-71
2022/04/03 01:59:56;;;;;;;1.52;0.45;;;24.10;96.50;;;;;;5013777;28;20461;-71
2022/04/03 02:02:23;;;;;;;5.03;0.50;;;23.90;96.20;;;;;;5028053;28;20030;-71
2022/04/03 02:04:50;;;;;;;2.53;0.40;;;24.10;95.90;;;;;;5033325;28;20025;-72
2022/04/03 02:07:17;;;;;;;6.25;0.68;;;24.10;96.70;;;;;;5017896;28;20029;-71
2022/04/03 02:09:45;;;;;;;3.28;0.70;;;23.90;96.20;;;;;;5019303;28;20036;-71
2022/04/03 02:12:13;;;;;;;2.25;0.50;;;23.80;96.80;;;;;;5040928;28;20041;-71
2022/04/03 02:14:40;;;;;;;2.45;0.40;;;24.00;96.40;;;;;;5019700;28;20044;-71
2022/04/03 02:17:07;;;;;;;3.00;0.88;;;24.30;96.50;;;;;;5031605;28;20401;-71
2022/04/03 02:19:35;;;;;;;3.88;0.52;;;24.20;96.20;;;;;;5033495;28;20030;-71
2022/04/03 02:22:02;;;;;;;3.90;0.57;;;24.00;96.00;;;;;;5020064;28;20394;-71
2022/04/03 02:24:29;;;;;;;1.80;0.50;;;24.00;96.30;;;;;;5029494;28;20021;-71
2022/04/03 02:26:56;;;;;;;6.93;0.80;;;23.60;96.50;;;;;;5031715;28;20029;-71
2022/04/03 02:29:24;;;;;;;2.70;0.52;;;23.30;97.10;;;;;;5033665;28;20389;-72
2022/04/03 02:31:51;;;;;;;4.32;0.57;;;23.30;97.00;;;;;;5032427;28;20038;-72
2022/04/03 02:34:19;;;;;;;2.38;0.60;;;23.30;96.70;;;;;;5028897;28;20053;-70
2022/04/03 02:36:46;;;;;;;3.10;0.32;;;23.50;97.20;;;;;;5023383;28;20025;-71
2022/04/03 02:39:13;;;;;;;2.60;0.57;;;24.00;96.40;;;;;;5030887;28;20032;-71
2022/04/03 02:41:40;;;;;;;1.60;0.60;;;23.90;96.50;;;;;;5024468;28;20021;-71
2022/04/03 02:44:08;;;;;;;1.83;0.50;;;23.70;96.50;;;;;;5033060;28;20037;-71
2022/04/03 02:46:35;;;;;;;3.53;0.60;;;24.00;96.70;;;;;;5023431;28;20066;-73
2022/04/03 02:49:03;;;;;;;3.70;0.57;;;24.10;96.00;;;;;;5013163;28;20022;-72
2022/04/03 02:51:30;;;;;;;2.08;0.60;;;23.90;96.00;;;;;;5023183;28;20038;-71
2022/04/03 02:53:58;;;;;;;1.77;0.50;;;24.20;96.50;;;;;;5013265;28;20041;-71
2022/04/03 02:56:25;;;;;;;3.08;0.63;;;24.20;96.60;;;;;;5020254;28;20030;-72
2022/04/03 02:58:55;;;;;;;2.20;0.52;;;23.90;96.20;;;;;;5033462;28;20524;-72
2022/04/03 03:01:23;;;;;;;4.15;0.55;;;23.50;96.30;;;;;;5035609;28;20026;-72
2022/04/03 03:03:51;;;;;;;3.80;0.60;;;23.50;96.30;;;;;;5034443;28;20028;-71
2022/04/03 03:06:19;;;;;;;4.53;0.60;;;23.90;96.40;;;;;;5027055;28;20521;-71
2022/04/03 03:08:46;;;;;;;1.67;0.30;;;24.10;96.20;;;;;;5034395;28;20043;-71
2022/04/03 03:11:14;;;;;;;2.70;0.60;;;24.00;96.40;;;;;;5034820;28;20029;-71
2022/04/03 03:13:42;;;;;;;3.03;0.60;;;23.90;96.30;;;;;;5036256;28;20078;-72
2022/04/03 03:16:10;;;;;;;5.22;1.13;;;24.00;96.30;;;;;;5026021;28;20052;-71
2022/04/03 03:18:37;;;;;;;2.20;0.60;;;23.90;96.30;;;;;;5035448;28;20021;-72
2022/04/03 03:21:04;;;;;;;2.65;0.50;;;24.10;95.90;;;;;;5034202;28;20393;-72
2022/04/03 03:23:32;;;;;;;3.35;0.77;;;24.50;96.00;;;;;;5036398;28;20028;-71
2022/04/03 03:25:59;;;;;;;1.83;0.43;;;24.80;96.20;;;;;;5035408;28;20018;-72
2022/04/03 03:28:26;;;;;;;3.97;0.82;;;25.00;95.60;;;;;;5036165;28;20029;-71
2022/04/03 03:30:53;;;;;;;4.47;0.90;;;24.70;95.20;;;;;;5034234;28;20385;-72
2022/04/03 03:33:21;;;;;;;3.47;0.90;;;24.80;96.10;;;;;;5027366;28;20033;-71
2022/04/03 03:35:48;;;;;;;2.38;0.70;;;24.60;95.90;;;;;;5046911;28;20035;-72
2022/04/03 03:38:15;;;;;;;5.93;0.82;;;24.50;96.20;;;;;;5036195;28;20057;-71
2022/04/03 03:40:44;;;;;;;5.80;0.50;;;24.40;95.90;;;;;;5035014;28;20108;-72
2022/04/03 03:43:11;;;;;;;2.75;0.65;;;24.20;95.80;;;;;;5034331;28;20040;-72
2022/04/03 03:45:39;;;;;;;2.78;0.65;;;24.50;96.20;;;;;;5033678;28;20478;-70
2022/04/03 03:48:08;;;;;;;5.47;0.50;;;24.50;96.10;;;;;;5035835;28;20060;-69
2022/04/03 03:50:36;;;;;;;3.72;0.60;;;24.70;95.80;;;;;;5033901;28;20017;-69
2022/04/03 03:53:03;;;;;;;2.50;0.80;;;24.60;95.70;;;;;;5035562;28;20041;-68
2022/04/03 03:55:30;;;;;;;4.97;0.80;;;25.00;95.50;;;;;;5034736;28;20045;-70
2022/04/03 03:57:58;;;;;;;1.98;0.45;;;25.10;95.70;;;;;;5029450;28;20026;-70
2022/04/03 04:00:25;;;;;;;3.08;0.60;;;25.10;95.30;;;;;;5022595;28;20025;-69
2022/04/03 04:02:52;;;;;;;3.30;0.70;;;25.10;95.00;;;;;;5034437;28;20025;-71
2022/04/03 04:05:20;;;;;;;2.92;0.73;;;25.00;94.90;;;;;;5034455;28;20033;-69
2022/04/03 04:07:48;;;;;;;3.55;0.90;;;25.00;94.90;;;;;;5016280;28;20034;-71
2022/04/03 04:10:16;;;;;;;3.38;0.90;;;25.20;94.90;;;;;;5015454;28;20029;-70
2022/04/03 04:12:45;;;;;;;2.58;0.45;;;25.10;95.20;;;;;;5033715;28;20087;-70
2022/04/03 04:15:14;;;;;;;2.50;0.70;;;25.20;94.70;;;;;;5033818;28;20112;-69
2022/04/03 04:17:46;;;;;;;3.63;0.85;;;25.20;94.80;;;;;;5035436;28;20048;-70
2022/04/03 04:20:16;;;;;;;2.58;0.68;;;25.40;94.80;;;;;;5035525;28;20111;-69
2022/04/03 04:22:46;;;;;;;3.25;0.73;;;25.40;94.50;;;;;;5016644;28;20037;-68
2022/04/03 04:25:15;;;;;;;5.97;0.70;;;25.20;94.20;;;;;;5015761;28;20022;-70
2022/04/03 04:27:43;;;;;;;1.95;0.43;;;25.20;94.40;;;;;;5032914;28;20040;-71
2022/04/03 04:30:11;;;;;;;2.17;0.50;;;25.50;94.90;;;;;;5033881;28;20489;-70
2022/04/03 04:32:38;;;;;;;1.63;0.50;;;25.50;94.50;;;;;;5033096;28;20045;-70
2022/04/03 04:35:06;;;;;;;2.17;0.40;;;25.60;94.80;;;;;;5034569;28;20014;-70
2022/04/03 04:37:34;;;;;;;1.88;0.30;;;25.90;94.60;;;;;;5017039;28;20049;-69
2022/04/03 04:40:02;;;;;;;3.55;0.50;;;25.60;94.20;;;;;;5032782;28;20079;-69
2022/04/03 04:42:29;;;;;;;1.45;0.47;;;25.20;94.10;;;;;;5018612;28;20153;-70
2022/04/03 04:44:56;;;;;;;4.88;0.63;;;25.20;94.70;;;;;;5014921;28;20471;-70
2022/04/03 04:47:23;;;;;;;1.90;0.60;;;25.30;95.40;;;;;;5029967;28;20073;-71
2022/04/03 04:49:51;;;;;;;2.25;0.65;;;25.30;95.90;;;;;;5034521;28;20022;-71
2022/04/03 04:52:18;;;;;;;3.03;0.75;;;25.50;96.30;;;;;;5023066;28;20038;-70
2022/04/03 04:54:45;;;;;;;2.17;0.60;;;25.30;94.60;;;;;;5014937;28;20087;-70
2022/04/03 04:57:12;;;;;;;1.60;0.50;;;25.20;94.60;;;;;;5013998;28;20022;-70
2022/04/03 04:59:39;;;;;;;4.60;0.60;;;25.30;94.80;;;;;;5014543;28;20042;-70
2022/04/03 05:02:07;;;;;;;2.15;0.60;;;25.30;94.70;;;;;;5027167;28;20021;-70
2022/04/03 05:04:34;;;;;;;5.30;0.60;;;25.30;95.40;;;;;;5033091;28;20088;-70
2022/04/03 05:07:02;;;;;;;3.67;0.40;;;25.20;96.20;;;;;;5033733;28;20405;-70
2022/04/03 05:09:31;;;;;;;2.65;0.60;;;25.10;96.10;;;;;;5034380;28;20469;-70
2022/04/03 05:11:59;;;;;;;5.05;0.77;;;24.90;96.30;;;;;;5031932;28;20076;-71
2022/04/03 05:14:27;;;;;;;2.88;0.50;;;24.90;96.70;;;;;;5031954;28;20041;-69
2022/04/03 05:16:55;;;;;;;4.50;0.50;;;24.90;94.60;;;;;;5028775;28;20061;-70
2022/04/03 05:19:24;;;;;;;4.45;1.17;;;24.80;95.00;;;;;;5030053;28;20037;-70
2022/04/03 05:21:52;;;;;;;1.73;0.52;;;24.90;96.10;;;;;;5031712;28;20025;-70
2022/04/03 05:24:19;;;;;;;1.45;0.70;;;24.80;95.60;;;;;;5034177;28;20029;-70
2022/04/03 05:26:47;;;;;;;3.58;0.60;;;24.80;95.40;;;;;;5032342;28;20118;-70
2022/04/03 05:29:14;;;;;;;5.18;1.00;;;24.80;94.00;;;;;;5033636;28;20029;-69
2022/04/03 05:31:42;;;;;;;5.00;0.80;;;24.70;94.30;;;;;;5023643;28;20026;-70
2022/04/03 05:34:09;;;;;;;1.27;0.43;;;24.70;94.30;;;;;;5032177;28;20304;-70
2022/04/03 05:36:37;;;;;;;4.53;0.68;;;24.70;94.20;;;;;;5032840;28;20029;-69
2022/04/03 05:39:05;;;;;;;4.60;0.43;;;24.80;93.80;;;;;;5033775;28;20026;-70
2022/04/03 05:41:34;;;;;;;2.65;0.63;;;24.70;94.60;;;;;;5032216;28;20044;-70
2022/04/03 05:44:02;;;;;;;4.13;0.50;;;24.70;94.80;;;;;;5033620;28;20029;-70
2022/04/03 05:46:30;;;;;;;2.80;0.80;;;24.70;94.10;;;;;;5029325;28;20045;-70
2022/04/03 05:48:59;;;;;;;3.60;0.50;;;24.70;94.10;;;;;;5020338;28;20056;-70
2022/04/03 05:51:26;;;;;;;4.32;0.50;;;24.70;95.20;;;;;;5020777;28;20079;-70
2022/04/03 05:53:54;;;;;;;3.67;0.85;;;24.50;96.80;;;;;;5033289;28;20061;-71
2022/04/03 05:56:27;;;;;;;3.88;0.50;;;24.50;97.50;;;;;;5031881;28;20028;-70
2022/04/03 05:58:55;;;;;;;3.63;0.77;;;24.40;97.80;;;;;;5033488;28;20080;-71
2022/04/03 06:01:22;;;;;;;3.40;0.60;;;24.30;98.50;;;;;;5025835;28;20026;-71
2022/04/03 06:03:50;;;;;;;2.60;0.65;;;24.30;98.50;;;;;;5013558;28;20033;-71
2022/04/03 06:06:18;;;;;;;4.68;0.73;;;24.30;98.60;;;;;;5013109;28;20042;-70
2022/04/03 06:08:46;;;;;;;3.75;0.95;;;24.20;98.60;;;;;;5013784;28;20030;-71
2022/04/03 06:11:13;;;;;;;2.97;0.80;;;24.10;98.60;;;;;;5020509;28;20497;-71
2022/04/03 06:13:40;;;;;;;2.28;0.63;;;24.10;99.10;;;;;;5031812;28;20030;-70
2022/04/03 06:16:08;;;;;;;3.05;1.02;;;24.10;99.30;;;;;;5031277;28;20029;-71
2022/04/03 06:18:35;;;;;;;3.67;1.40;;;24.00;99.00;;;;;;5031375;28;20486;-71
2022/04/03 06:21:02;;;;;;;1.98;1.00;;;23.90;98.90;;;;;;5031684;28;20021;-71
2022/04/03 06:23:30;;;;;;;6.45;1.70;;;23.80;99.20;;;;;;5033062;28;20044;-70
2022/04/03 06:25:58;;;;;;;1.85;0.80;;;23.80;99.20;;;;;;5031018;28;20067;-71
2022/04/03 06:28:26;;;;;;;3.00;1.10;;;23.60;99.20;;;;;;5031723;28;20040;-70
2022/04/03 06:30:54;;;;;;;3.47;0.90;;;23.60;99.50;;;;;;5032369;28;20029;-70
2022/04/03 06:33:22;;;;;;;2.20;0.70;;;23.50;99.00;;;;;;5032536;28;20037;-71
2022/04/03 06:35:49;;;;;;;4.00;0.80;;;23.50;99.00;;;;;;5031814;28;20056;-71
2022/04/03 06:38:17;;;;;;;6.53;1.15;;;23.40;99.00;;;;;;5031321;28;20061;-71
2022/04/03 06:40:50;;;;;;;4.50;1.20;;;23.40;98.90;;;;;;5026729;28;20029;-70
2022/04/03 06:43:26;;;;;;;3.03;0.93;;;23.40;99.50;;;;;;5031781;28;20053;-71
2022/04/03 06:45:54;;;;;;;3.22;1.35;;;23.30;99.20;;;;;;5031885;28;20512;-71
2022/04/03 06:48:23;;;;;;;3.22;0.90;;;23.40;99.60;;;;;;5032886;28;20108;-71
2022/04/03 06:50:50;;;;;;;2.78;1.20;;;23.30;99.70;;;;;;5031204;28;20030;-72
2022/04/03 06:53:17;;;;;;;2.55;0.85;;;23.20;99.60;;;;;;5032842;28;20438;-72
2022/04/03 06:55:45;;;;;;;3.95;1.50;;;23.20;99.90;;;;;;5030132;28;20116;-71
2022/04/03 06:58:12;;;;;;;4.55;0.90;;;23.10;99.90;;;;;;5018603;28;20445;-71
2022/04/03 07:00:41;;;;;;;3.72;1.30;;;23.10;98.90;;;;;;5029533;28;20402;-71
2022/04/03 07:03:08;;;;;;;3.95;0.98;;;23.10;99.00;;;;;;5018210;28;20030;-71
2022/04/03 07:05:36;;;;;;;3.53;1.08;;;23.10;99.00;;;;;;5031503;28;20032;-71
2022/04/03 07:08:03;;;;;;;3.85;0.90;;;23.00;99.50;;;;;;5022122;28;20084;-71
2022/04/03 07:10:30;;;;;;;3.92;1.02;;;22.90;99.30;;;;;;5024986;28;20026;-71
2022/04/03 07:12:59;;;;;;;2.50;1.00;;;22.90;99.60;;;;;;5032091;28;20041;-71
2022/04/03 07:15:27;;;;;;;3.72;1.45;;;22.80;99.60;;;;;;5030331;28;20025;-72
2022/04/03 07:17:54;;;;;;;5.10;1.30;;;22.70;98.80;;;;;;5031250;28;20112;-71
2022/04/03 07:20:21;;;;;;;4.13;1.00;;;22.80;99.20;;;;;;5021449;28;20389;-71
2022/04/03 07:22:49;;;;;;;3.45;1.33;;;22.70;98.90;;;;;;5032027;28;20040;-70
2022/04/03 07:25:16;;;;;;;3.28;1.10;;;22.70;98.70;;;;;;5031183;28;20029;-70
2022/04/03 07:27:44;;;;;;;5.55;1.95;;;22.70;98.40;;;;;;5029732;28;20078;-71
2022/04/03 07:30:14;;;;;;;4.30;1.70;;;22.70;98.70;;;;;;5031695;28;20021;-71
2022/04/03 07:32:42;;;;;;;4.20;1.13;;;22.60;98.70;;;;;;5029894;28;20124;-71
2022/04/03 07:35:11;;;;;;;3.13;1.27;;;22.60;98.50;;;;;;5022742;28;20022;-71
2022/04/03 07:37:39;;;;;;;4.82;1.80;;;22.60;98.40;;;;;;5042332;28;20499;-71
2022/04/03 07:40:07;;;;;;;7.65;2.45;;;22.60;98.70;;;;;;5012635;28;20160;-70
2022/04/03 07:42:36;;;;;;;5.32;2.30;;;22.60;98.80;;;;;;5029098;28;20025;-71
2022/04/03 07:45:07;;;;;;;6.57;1.98;;;22.50;99.10;;;;;;5033050;28;20462;-71
2022/04/03 07:47:35;;;;;;;3.38;1.30;;;22.40;99.00;;;;;;5037965;23;20136;-71
2022/04/03 07:50:04;;;;;;;3.88;1.35;;;22.30;98.70;;;;;;5029744;28;20053;-70
2022/04/03 07:52:32;;;;;;;3.40;1.10;;;22.30;98.70;;;;;;5026423;28;20111;-70
2022/04/03 07:54:59;;;;;;;6.72;3.42;;;22.30;99.10;;;;;;5031919;28;20032;-69
2022/04/03 07:57:27;;;;;;;14.50;8.43;;;22.30;98.90;;;;;;5032320;28;20037;-66
2022/04/03 07:59:54;;;;;;;11.18;5.75;;;22.20;98.70;;;;;;5032091;28;20026;-70
2022/04/03 08:02:21;;;;;;;6.90;3.05;;;22.20;98.90;;;;;;5032301;28;20036;-70
2022/04/03 08:04:49;;;;;;;3.22;1.10;;;22.10;99.30;;;;;;5033970;28;20068;-70
2022/04/03 08:07:16;;;;;;;2.95;1.40;;;22.10;98.70;;;;;;5024975;28;20056;-70
2022/04/03 08:09:43;;;;;;;3.22;1.10;;;22.00;99.10;;;;;;5027893;28;20033;-70
2022/04/03 08:12:11;;;;;;;3.17;1.08;;;22.00;98.90;;;;;;5033252;28;20038;-70
2022/04/03 08:14:38;;;;;;;3.42;0.90;;;22.00;99.00;;;;;;5035523;28;20029;-70
2022/04/03 08:17:06;;;;;;;5.57;1.23;;;21.90;98.50;;;;;;5033056;28;20025;-69
2022/04/03 08:19:33;;;;;;;7.93;2.00;;;21.90;98.80;;;;;;5022406;28;20406;-69
2022/04/03 08:22:00;;;;;;;3.38;1.40;;;21.90;98.50;;;;;;5034173;28;20061;-70
2022/04/03 08:24:28;;;;;;;4.15;1.40;;;21.90;98.70;;;;;;5032342;28;20052;-70
2022/04/03 08:26:55;;;;;;;2.03;1.10;;;21.80;98.50;;;;;;5034085;28;20132;-70
2022/04/03 08:29:22;;;;;;;3.85;0.90;;;21.80;98.20;;;;;;5028922;28;20068;-71
2022/04/03 08:31:49;;;;;;;2.55;0.88;;;21.80;98.20;;;;;;5031956;28;20021;-70
2022/04/03 08:34:17;;;;;;;3.05;1.05;;;21.80;98.20;;;;;;5033052;28;20513;-70
2022/04/03 08:36:44;;;;;;;1.60;0.80;;;21.80;98.80;;;;;;5028606;28;20048;-71
2022/04/03 08:39:12;;;;;;;1.90;0.70;;;21.80;98.60;;;;;;5031077;28;20498;-69
2022/04/03 08:41:40;;;;;;;2.42;0.98;;;21.70;98.50;;;;;;5032752;28;20028;-69
2022/04/03 08:44:07;;;;;;;3.33;1.00;;;21.70;98.50;;;;;;5034317;28;20429;-71
2022/04/03 08:46:36;;;;;;;6.10;0.98;;;21.70;98.70;;;;;;5030056;28;20136;-71
2022/04/03 08:49:06;;;;;;;1.95;0.60;;;21.70;98.40;;;;;;5030617;28;20029;-71
2022/04/03 08:51:39;;;;;;;4.30;0.95;;;21.70;98.60;;;;;;5028441;28;20045;-70
2022/04/03 08:54:07;;;;;;;1.65;1.08;;;21.60;98.50;;;;;;5031062;28;20044;-70
2022/04/03 08:56:35;;;;;;;5.10;1.27;;;21.60;98.60;;;;;;5029649;28;20152;-70
2022/04/03 08:59:02;;;;;;;3.80;1.33;;;21.60;98.60;;;;;;5029592;28;20108;-71
2022/04/03 09:01:30;;;;;;;1.52;0.90;;;21.50;98.80;;;;;;5036891;28;20044;-69
2022/04/03 09:03:59;;;;;;;2.28;1.00;;;21.50;98.60;;;;;;5033555;28;20037;-71
2022/04/03 09:06:27;;;;;;;4.13;1.10;;;21.40;98.90;;;;;;5031183;28;20064;-72
2022/04/03 09:08:54;;;;;;;5.63;1.38;;;21.40;98.90;;;;;;5029574;28;20406;-72
2022/04/03 09:11:22;;;;;;;2.17;0.90;;;21.40;99.50;;;;;;5038397;23;20056;-71
2022/04/03 09:13:49;;;;;;;4.97;1.25;;;21.30;98.90;;;;;;5030002;28;20038;-72
2022/04/03 09:16:16;;;;;;;2.25;0.75;;;21.30;98.80;;;;;;5030025;28;20026;-71
2022/04/03 09:18:52;;;;;;;2.13;0.90;;;21.30;98.80;;;;;;5048900;22;20098;-71
2022/04/03 09:21:25;;;;;;;3.78;1.17;;;21.30;99.90;;;;;;5035722;22;20050;-72
2022/04/03 09:24:07;;;;;;;3.35;1.30;;;21.20;99.70;;;;;;5007649;28;20037;-72
2022/04/03 09:26:35;;;;;;;5.65;1.10;;;21.10;99.30;;;;;;5049133;23;20520;-71
2022/04/03 09:29:21;;;;;;;5.05;0.82;;;21.10;99.10;;;;;;5031084;28;20366;-72
2022/04/03 09:31:49;;;;;;;4.03;0.70;;;21.10;99.30;;;;;;5040816;28;20323;-72
2022/04/03 09:34:19;;;;;;;3.30;0.80;;;21.10;98.60;;;;;;5036733;28;20440;-72
2022/04/03 09:37:00;;;;;;;1.80;0.40;;;21.20;98.30;;;;;;5033058;28;20478;-72
2022/04/03 09:42:57;;;;;;;6.68;1.60;;;21.10;98.80;;;;;;5035691;28;20401;-72
2022/04/03 09:45:32;;;;;;;2.60;0.60;;;21.20;98.40;;;;;;5033463;28;20025;-71
2022/04/03 09:47:59;;;;;;;3.70;0.70;;;21.10;98.90;;;;;;5032176;28;20029;-71
2022/04/03 09:50:27;;;;;;;3.05;0.70;;;21.10;98.60;;;;;;5027515;28;20050;-71
2022/04/03 09:52:55;;;;;;;2.45;0.95;;;21.10;99.50;;;;;;5048305;23;20585;-71
2022/04/03 09:55:28;;;;;;;5.93;1.02;;;21.00;99.00;;;;;;5032246;28;20396;-71
2022/04/03 09:58:06;;;;;;;5.65;1.30;;;21.00;99.20;;;;;;5031878;28;20452;-71
2022/04/03 10:00:41;;;;;;;7.32;1.27;;;21.00;99.80;;;;;;5031149;28;20032;-71
2022/04/03 10:03:14;;;;;;;2.53;1.35;;;20.90;99.90;;;;;;5030855;28;20095;-71
2022/04/03 10:05:43;;;;;;;3.75;0.93;;;20.80;99.90;;;;;;5030916;28;20029;-71
2022/04/03 10:08:15;;;;;;;2.67;0.95;;;20.70;99.90;;;;;;5048439;23;20046;-71
2022/04/03 10:10:45;;;;;;;3.55;1.30;;;20.60;99.90;;;;;;5031954;28;20034;-72
2022/04/03 10:13:14;;;;;;;2.67;1.00;;;20.60;99.90;;;;;;5029215;28;20033;-71
2022/04/03 10:15:42;;;;;;;3.65;1.00;;;20.40;99.90;;;;;;5030195;28;20379;-71
2022/04/03 10:18:13;;;;;;;7.35;1.48;;;20.30;99.90;;;;;;5030489;28;20167;-71
2022/04/03 10:20:42;;;;;;;5.22;0.80;;;20.40;99.90;;;;;;5026059;28;20037;-71
2022/04/03 10:23:12;;;;;;;2.47;1.10;;;20.30;99.90;;;;;;5030702;28;20697;-72
2022/04/03 10:25:47;;;;;;;3.38;0.80;;;20.30;99.70;;;;;;5029797;28;20061;-70
2022/04/03 10:28:20;;;;;;;2.83;1.10;;;20.40;99.90;;;;;;5030864;28;20033;-71
2022/04/03 10:31:12;;;;;;;2.15;0.90;;;20.40;99.30;;;;;;5030511;28;20083;-71
2022/04/03 10:33:44;;;;;;;2.92;1.23;;;20.40;99.20;;;;;;5031560;28;20067;-70
2022/04/03 10:36:13;;;;;;;3.50;1.05;;;20.50;99.10;;;;;;5030817;28;20478;-70
2022/04/03 10:38:48;;;;;;;2.22;0.52;;;20.60;98.90;;;;;;5031063;28;20026;-69
2022/04/03 10:41:35;;;;;;;3.45;0.60;;;20.70;98.80;;;;;;5030307;28;20389;-70
2022/04/03 10:44:18;;;;;;;2.78;0.50;;;20.70;98.90;;;;;;5030599;28;20042;-70
2022/04/03 10:47:05;;;;;;;2.90;0.77;;;20.70;98.90;;;;;;5030186;28;20026;-70
2022/04/03 10:49:45;;;;;;;2.00;0.60;;;20.70;99.10;;;;;;5031316;28;20045;-70
2022/04/03 10:52:22;;;;;;;2.15;0.52;;;20.60;99.40;;;;;;5023741;28;20030;-69
2022/04/03 10:54:58;;;;;;;2.50;0.60;;;20.70;99.20;;;;;;5032268;28;20030;-71
2022/04/03 10:57:49;;;;;;;3.75;0.45;;;20.60;99.60;;;;;;5048856;23;20160;-71
2022/04/03 11:00:16;;;;;;;2.33;0.45;;;20.60;99.80;;;;;;5026855;28;20042;-70
2022/04/03 11:03:01;;;;;;;2.58;0.50;;;20.50;99.90;;;;;;5028054;28;20425;-71
2022/04/03 11:05:29;;;;;;;1.08;0.30;;;20.50;99.60;;;;;;5039613;28;20034;-71
2022/04/03 11:08:04;;;;;;;2.78;0.30;;;20.50;99.80;;;;;;5030571;28;20030;-71
2022/04/03 11:10:57;;;;;;;2.08;0.40;;;20.50;99.90;;;;;;5019790;28;20021;-71
2022/04/03 11:13:30;;;;;;;4.50;0.60;;;20.40;99.90;;;;;;5026818;28;20040;-71
2022/04/03 11:16:02;;;;;;;1.37;0.40;;;20.50;99.60;;;;;;5030455;28;20026;-71
2022/04/03 11:18:51;;;;;;;1.73;0.63;;;20.50;99.90;;;;;;5030565;28;20033;-71
2022/04/03 11:21:21;;;;;;;4.88;0.40;;;20.40;99.90;;;;;;5033479;28;20034;-71
2022/04/03 11:23:51;;;;;;;3.70;0.50;;;20.30;99.90;;;;;;5033996;28;20116;-72
2022/04/03 11:26:21;;;;;;;2.40;0.40;;;20.30;99.90;;;;;;5031562;28;20029;-71
2022/04/03 11:28:49;;;;;;;2.85;0.43;;;20.30;99.90;;;;;;5037697;28;20034;-71
2022/04/03 11:31:17;;;;;;;4.82;1.33;;;20.30;99.90;;;;;;5031786;28;20026;-71
2022/04/03 11:33:46;;;;;;;3.28;0.40;;;20.30;99.90;;;;;;5027338;28;20038;-70
2022/04/03 11:36:16;;;;;;;3.85;0.82;;;20.40;99.90;;;;;;5026650;28;20021;-71
2022/04/03 11:38:46;;;;;;;1.30;0.43;;;20.40;99.90;;;;;;5026784;28;20049;-70
2022/04/03 11:41:21;;;;;;;1.30;0.50;;;20.50;99.80;;;;;;5032240;28;20080;-70
2022/04/03 11:44:04;;;;;;;3.97;0.50;;;20.50;99.80;;;;;;5035602;28;20057;-71
2022/04/03 11:46:40;;;;;;;4.90;0.75;;;20.50;99.90;;;;;;5025966;28;20068;-70
2022/04/03 11:49:17;;;;;;;5.70;0.60;;;20.50;99.90;;;;;;5028817;28;20420;-71
2022/04/03 11:51:46;;;;;;;3.88;0.60;;;20.50;99.90;;;;;;5021213;28;20026;-71
2022/04/03 11:54:15;;;;;;;3.35;0.95;;;20.60;99.80;;;;;;5042241;28;20124;-70
2022/04/03 11:56:43;;;;;;;3.20;0.40;;;20.60;99.60;;;;;;5028328;28;20042;-70
2022/04/03 11:59:11;;;;;;;7.63;0.60;;;20.60;99.70;;;;;;5032482;28;20037;-70
2022/04/03 12:01:52;;;;;;;1.58;0.47;;;20.60;99.80;;;;;;5018086;28;20040;-70
2022/04/03 12:04:22;;;;;;;1.35;0.40;;;20.60;99.40;;;;;;5031405;28;20622;-70
2022/04/03 12:07:00;;;;;;;3.38;0.50;;;20.50;99.60;;;;;;5030626;28;20504;-71
2022/04/03 12:09:28;;;;;;;2.33;0.98;;;20.50;99.30;;;;;;5029948;28;20834;-72
2022/04/03 12:11:56;;;;;;;1.73;0.50;;;20.50;99.40;;;;;;5037466;23;20417;-71
2022/04/03 12:17:02;;;;;;;1.58;0.40;;;20.50;99.00;;;;;;5050388;23;20049;-71
2022/04/03 12:19:35;;;;;;;0.47;0.30;;;20.50;98.80;;;;;;5048786;22;20052;-71
2022/04/03 12:22:08;;;;;;;3.30;0.38;;;20.50;99.00;;;;;;5026526;28;20022;-71
2022/04/03 12:24:38;;;;;;;2.40;0.30;;;20.40;99.20;;;;;;5025208;28;20121;-71
2022/04/03 12:29:48;;;;;;;1.98;0.40;;;20.30;99.60;;;;;;5044574;23;20050;-70
2022/04/03 12:32:17;;;;;;;4.00;0.40;;;20.20;99.60;;;;;;5020789;28;20033;-70
2022/04/03 12:34:48;;;;;;;4.07;0.50;;;20.20;99.40;;;;;;5030785;28;20452;-70
2022/04/03 12:37:17;;;;;;;2.30;0.50;;;20.30;99.10;;;;;;5030253;28;20104;-71
2022/04/03 12:39:52;;;;;;;3.20;0.55;;;20.30;99.00;;;;;;5030194;28;20028;-71
2022/04/03 12:42:21;;;;;;;5.97;0.60;;;20.30;99.10;;;;;;5041207;28;20040;-71
2022/04/03 12:45:00;;;;;;;5.03;0.40;;;20.30;99.30;;;;;;5025358;28;20430;-70
2022/04/03 12:48:03;;;;;;;1.60;0.45;;;20.20;99.30;;;;;;5029363;28;20045;-71
2022/04/03 12:50:46;;;;;;;3.13;0.40;;;20.20;99.50;;;;;;5032163;28;20025;-71
2022/04/03 12:53:16;;;;;;;1.35;0.45;;;20.10;99.50;;;;;;5023065;28;20394;-71
2022/04/03 12:55:54;;;;;;;2.33;0.60;;;20.10;99.70;;;;;;5026869;28;20505;-71
2022/04/03 12:58:30;;;;;;;3.25;0.50;;;20.00;99.90;;;;;;5028766;28;20048;-71
2022/04/03 13:01:10;;;;;;;1.67;0.40;;;20.00;99.90;;;;;;5025863;28;20033;-71
2022/04/03 13:03:52;;;;;;;1.58;0.60;;;20.00;99.80;;;;;;5025592;28;20029;-71
2022/04/03 13:06:25;;;;;;;5.78;1.27;;;20.00;99.60;;;;;;5027266;28;20037;-72
2022/04/03 13:09:00;;;;;;;6.35;1.17;;;20.10;99.60;;;;;;5035108;23;20034;-72
2022/04/03 13:11:45;;;;;;;1.92;0.60;;;20.10;99.40;;;;;;5030080;28;20038;-71